Warsaw, New York
Current Conditions -  °F | °C
As of 11:43 AM on Tuesday 27 Jan 2015 (Local Time) from KDSV Reporting Station
Light Snow Light Snow  
Wind Chill: -3°   Ceiling: 2000
Heat Index: 14°   Visibility: 2.5mi
Dew Point:   Wind: 18mph
Humidity: 77%   Direction: 320°NW
Pressure: 29.97"   Gusts: NA
Location:  42.74°N, 78.13°W
Report Text: KDSV 271643Z AUTO 32016KT 2 1/2SM -SN OVC020 M10/M13 A2997 RMK AO2 P0000 T11001133
Loading
Personal Weather Stations






























Interactive Weather Map New forecast layout! Learn more

10-Day Weather Forecast

Advertisements
Track Severe Weather on mobile